createdAt,value
2023-02-24T00:03:20.342Z,97648.63
2023-02-24T00:08:22.223Z,97640.22
2023-02-24T00:13:24.069Z,97630.03
2023-02-24T00:18:25.916Z,97635.03
2023-02-24T00:23:27.734Z,97637.00
2023-02-24T00:28:29.792Z,97637.00
2023-02-24T00:33:32.625Z,97625.84
2023-02-24T00:38:36.124Z,97633.16
2023-02-24T00:43:39.142Z,97634.63
2023-02-24T00:48:41.225Z,97631.75
2023-02-24T00:53:45.292Z,97624.03
2023-02-24T00:58:50.455Z,97615.16
2023-02-24T01:03:56.694Z,97611.16
2023-02-24T01:09:00.392Z,97610.72
2023-02-24T01:14:11.879Z,97614.91
2023-02-24T01:19:13.807Z,97602.94
2023-02-24T01:24:16.564Z,97605.88
2023-02-24T01:29:19.328Z,97592.94
2023-02-24T01:34:21.471Z,97593.44
2023-02-24T01:39:26.029Z,97587.97
2023-02-24T01:44:32.771Z,97583.94
2023-02-24T01:49:39.426Z,97587.19
2023-02-24T01:54:46.655Z,97578.50
2023-02-24T01:59:51.693Z,97557.31
2023-02-24T02:05:03.911Z,97559.91
2023-02-24T02:10:07.980Z,97559.28
2023-02-24T02:15:13.679Z,97545.69
2023-02-24T02:20:42.912Z,97546.34
2023-02-24T02:25:55.623Z,97542.94
2023-02-24T02:31:29.422Z,97539.88
2023-02-24T02:37:00.115Z,97536.66
2023-02-24T02:42:15.064Z,97530.69
2023-02-24T02:47:26.212Z,97530.84
2023-02-24T02:52:40.780Z,97521.66
2023-02-24T02:57:48.128Z,97525.03
2023-02-24T03:02:55.424Z,97518.09
2023-02-24T03:07:59.371Z,97523.25
2023-02-24T03:13:06.224Z,97513.25
2023-02-24T03:18:18.646Z,97509.22
2023-02-24T03:23:27.304Z,97513.13
2023-02-24T03:28:37.652Z,97505.88
2023-02-24T03:33:50.190Z,97496.19
2023-02-24T03:38:52.800Z,97498.16
2023-02-24T03:43:55.518Z,97505.25
2023-02-24T03:49:09.518Z,97504.00
2023-02-24T03:54:31.046Z,97516.28
2023-02-24T03:59:58.764Z,97514.19
2023-02-24T04:05:13.830Z,97508.88
2023-02-24T04:11:05.442Z,97500.50
2023-02-24T04:16:28.281Z,97501.00
2023-02-24T04:21:32.612Z,97486.28
2023-02-24T04:26:40.526Z,97487.72
2023-02-24T04:31:50.822Z,97476.91
2023-02-24T04:36:53.119Z,97476.28
2023-02-24T04:41:57.740Z,97464.34
2023-02-24T04:47:00.789Z,97455.94
2023-02-24T04:52:02.896Z,97463.72
2023-02-24T04:57:08.044Z,97448.88
2023-02-24T05:02:09.906Z,97441.47
2023-02-24T05:07:16.005Z,97432.59
2023-02-24T05:12:17.777Z,97428.56
2023-02-24T05:17:20.229Z,97426.97
2023-02-24T05:22:23.096Z,97422.59
2023-02-24T05:27:28.171Z,97417.25
2023-02-24T05:32:30.203Z,97421.63
2023-02-24T05:37:34.179Z,97423.72
2023-02-24T05:42:35.940Z,97411.16
2023-02-24T05:47:40.325Z,97415.03
2023-02-24T05:52:45.994Z,97412.16
2023-02-24T05:57:50.894Z,97415.56
2023-02-24T06:02:52.811Z,97416.53
2023-02-24T06:08:06.447Z,97415.59
2023-02-24T06:13:08.376Z,97412.34
2023-02-24T06:18:11.752Z,97411.06
2023-02-24T06:23:17.015Z,97421.72
2023-02-24T06:28:20.413Z,97429.31
2023-02-24T06:33:23.141Z,97429.31
2023-02-24T06:38:28.988Z,97429.63
2023-02-24T06:43:31.908Z,97418.50
2023-02-24T06:48:34.341Z,97416.25
2023-02-24T06:53:43.493Z,97419.97
2023-02-24T06:58:51.010Z,97408.34
2023-02-24T07:04:18.209Z,97419.97
2023-02-24T07:09:22.984Z,97412.22
2023-02-24T07:14:30.678Z,97418.81
2023-02-24T07:19:33.773Z,97418.34
2023-02-24T07:24:37.459Z,97409.31
2023-02-24T07:29:39.617Z,97395.13
2023-02-24T07:34:42.344Z,97405.59
2023-02-24T07:39:44.438Z,97392.22
2023-02-24T07:44:49.118Z,97398.66
2023-02-24T07:49:51.348Z,97403.81
2023-02-24T07:54:55.262Z,97385.94
2023-02-24T07:59:57.137Z,97382.22
2023-02-24T08:05:02.907Z,97387.06
2023-02-24T08:10:14.633Z,97368.69
2023-02-24T08:15:24.240Z,97374.00
2023-02-24T08:20:30.118Z,97359.97
2023-02-24T08:25:36.108Z,97357.25
2023-02-24T08:30:47.373Z,97351.28
2023-02-24T08:36:02.220Z,97328.56
2023-02-24T08:41:05.129Z,97329.69
2023-02-24T08:46:13.310Z,97323.41
2023-02-24T08:51:24.019Z,97330.66
2023-02-24T08:56:29.101Z,97316.63
2023-02-24T09:01:39.875Z,97313.41
2023-02-24T09:06:48.887Z,97306.00
2023-02-24T09:11:57.140Z,97298.09
2023-02-24T09:17:02.390Z,97283.94
2023-02-24T09:22:21.294Z,97287.31
2023-02-24T09:27:29.680Z,97277.16
2023-02-24T09:32:34.847Z,97273.31
2023-02-24T09:37:41.464Z,97263.63
2023-02-24T09:42:49.208Z,97233.19
2023-02-24T09:47:54.857Z,97220.25
2023-02-24T09:53:14.059Z,97218.00
2023-02-24T09:58:48.049Z,97208.50
2023-02-24T10:04:27.527Z,97194.94
2023-02-24T10:09:34.520Z,97198.78
2023-02-24T10:14:51.178Z,97179.03
2023-02-24T10:20:28.870Z,97174.16
2023-02-24T10:25:54.259Z,97174.44
2023-02-24T10:31:10.662Z,97155.69
2023-02-24T10:36:18.005Z,97152.44
2023-02-24T10:41:20.452Z,97124.97
2023-02-24T10:46:40.882Z,97117.84
2023-02-24T10:51:51.759Z,97113.03
2023-02-24T10:57:08.386Z,97104.66
2023-02-24T11:02:45.981Z,97088.72
2023-02-24T11:07:53.829Z,97077.56
2023-02-24T11:13:15.746Z,97065.31
2023-02-24T11:18:24.255Z,97048.94
2023-02-24T11:23:35.178Z,97046.47
2023-02-24T11:29:04.210Z,97024.16
2023-02-24T11:34:33.106Z,97005.81
2023-02-24T11:39:47.562Z,97003.72
2023-02-24T11:44:56.231Z,96989.47
2023-02-24T11:50:14.599Z,96988.75
2023-02-24T11:55:44.693Z,96972.19
2023-02-24T12:00:57.897Z,96964.19
2023-02-24T12:06:15.540Z,96953.91
2023-02-24T12:11:46.021Z,96935.28
2023-02-24T12:16:56.788Z,96927.88
2023-02-24T12:22:06.029Z,96925.03
2023-02-24T12:27:39.483Z,96913.53
2023-02-24T12:32:51.680Z,96906.50
2023-02-24T12:38:15.476Z,96899.03
2023-02-24T12:43:45.355Z,96893.50
2023-02-24T12:49:21.169Z,96883.28
2023-02-24T12:54:31.840Z,96874.28
2023-02-24T12:59:39.919Z,96863.78
2023-02-24T13:04:59.884Z,96851.66
2023-02-24T13:10:20.059Z,96840.09
2023-02-24T13:15:25.543Z,96841.69
2023-02-24T13:20:32.344Z,96836.53
2023-02-24T13:25:39.900Z,96832.53
2023-02-24T13:30:44.073Z,96823.72
2023-02-24T13:35:48.580Z,96814.72
2023-02-24T13:40:51.092Z,96804.03
2023-02-24T13:45:59.184Z,96793.53
2023-02-24T13:51:38.897Z,96782.03
2023-02-24T13:57:03.249Z,96779.19
2023-02-24T14:02:11.056Z,96779.56
2023-02-24T14:07:23.208Z,96765.06
2023-02-24T14:12:28.165Z,96756.06
2023-02-24T14:17:37.537Z,96753.94
2023-02-24T14:22:50.806Z,96751.16
2023-02-24T14:27:55.000Z,96752.16
2023-02-24T14:32:57.513Z,96761.66
2023-02-24T14:38:01.946Z,96738.97
2023-02-24T14:43:16.390Z,96739.69
2023-02-24T14:48:26.155Z,96725.72
2023-02-24T14:53:30.648Z,96724.84
2023-02-24T14:58:42.273Z,96713.47
2023-02-24T15:03:47.053Z,96712.84
2023-02-24T15:08:58.252Z,96704.84
2023-02-24T15:14:07.493Z,96695.50
2023-02-24T15:19:26.357Z,96677.81
2023-02-24T15:24:31.262Z,96678.97
2023-02-24T15:29:33.165Z,96674.59
2023-02-24T15:34:36.705Z,96661.88
2023-02-24T15:39:42.836Z,96658.50
2023-02-24T15:44:53.280Z,96656.53
2023-02-24T15:49:55.319Z,96647.03
2023-02-24T15:55:00.580Z,96650.59
2023-02-24T16:00:09.063Z,96640.88
2023-02-24T16:05:14.781Z,96635.53
2023-02-24T16:10:24.566Z,96634.19
2023-02-24T16:15:39.475Z,96636.59
2023-02-24T16:20:41.869Z,96618.34
2023-02-24T16:25:45.321Z,96618.47
2023-02-24T16:30:49.009Z,96621.78
2023-02-24T16:35:54.878Z,96619.03
2023-02-24T16:40:57.981Z,96617.19
2023-02-24T16:46:05.461Z,96628.50
2023-02-24T16:51:08.347Z,96625.75
2023-02-24T16:56:10.133Z,96617.47
2023-02-24T17:01:19.656Z,96618.88
2023-02-24T17:06:23.833Z,96607.69
2023-02-24T17:11:28.270Z,96612.56
2023-02-24T17:16:30.324Z,96617.44
2023-02-24T17:21:32.183Z,96602.31
2023-02-24T17:26:34.035Z,96603.66
2023-02-24T17:31:36.172Z,96591.94
2023-02-24T17:36:38.053Z,96597.25
2023-02-24T17:41:39.970Z,96587.94
2023-02-24T17:46:41.932Z,96578.94
2023-02-24T17:51:43.982Z,96577.06
2023-02-24T17:56:45.834Z,96571.66
2023-02-24T18:01:47.683Z,96569.75
2023-02-24T18:06:50.805Z,96562.38
2023-02-24T18:11:52.971Z,96555.78
2023-02-24T18:16:57.631Z,96553.38
2023-02-24T18:21:59.771Z,96551.00
2023-02-24T18:27:04.549Z,96549.75
2023-02-24T18:32:06.643Z,96544.50
2023-02-24T18:37:10.100Z,96537.47
2023-02-24T18:42:12.109Z,96537.81
2023-02-24T18:47:13.977Z,96539.56
2023-02-24T18:52:15.773Z,96533.69
2023-02-24T18:57:17.996Z,96525.69
2023-02-24T19:02:19.767Z,96518.50
2023-02-24T19:07:21.755Z,96518.66
2023-02-24T19:12:24.183Z,96524.16
2023-02-24T19:17:26.109Z,96508.44
2023-02-24T19:22:28.683Z,96497.69
2023-02-24T19:27:30.709Z,96495.47
2023-02-24T19:32:32.768Z,96491.69
2023-02-24T19:37:35.633Z,96491.22
2023-02-24T19:42:47.269Z,96493.50
2023-02-24T19:47:49.234Z,96483.56
2023-02-24T19:52:52.373Z,96482.66
2023-02-24T19:57:55.253Z,96471.28
2023-02-24T20:02:57.217Z,96467.09
2023-02-24T20:07:59.628Z,96470.31
2023-02-24T20:13:01.644Z,96473.69
2023-02-24T20:18:07.792Z,96468.53
2023-02-24T20:23:11.535Z,96468.38
2023-02-24T20:28:13.318Z,96464.03
2023-02-24T20:33:16.456Z,96463.22
2023-02-24T20:38:18.405Z,96451.00
2023-02-24T20:43:20.533Z,96450.19
2023-02-24T20:48:25.515Z,96451.16
2023-02-24T20:53:31.301Z,96442.31
2023-02-24T20:58:36.687Z,96435.41
2023-02-24T21:03:38.778Z,96436.53
2023-02-24T21:08:46.577Z,96429.63
2023-02-24T21:13:50.094Z,96422.91
2023-02-24T21:18:58.904Z,96413.41
2023-02-24T21:24:03.519Z,96407.66
2023-02-24T21:29:05.481Z,96394.00
2023-02-24T21:34:13.974Z,96381.94
2023-02-24T21:39:15.951Z,96382.75
2023-02-24T21:44:17.790Z,96380.16
2023-02-24T21:49:19.924Z,96380.97
2023-02-24T21:54:22.157Z,96378.56
2023-02-24T21:59:24.239Z,96385.50
2023-02-24T22:04:29.969Z,96381.16
2023-02-24T22:09:32.183Z,96381.16
2023-02-24T22:14:36.344Z,96374.59
2023-02-24T22:19:38.222Z,96365.91
2023-02-24T22:24:40.183Z,96359.34
2023-02-24T22:29:43.046Z,96357.75
2023-02-24T22:34:48.669Z,96360.31
2023-02-24T22:39:50.523Z,96358.72
2023-02-24T22:44:55.522Z,96353.13
2023-02-24T22:49:57.309Z,96344.94
2023-02-24T22:54:59.058Z,96341.41
2023-02-24T23:00:00.961Z,96334.50
2023-02-24T23:05:02.820Z,96340.78
2023-02-24T23:10:05.153Z,96329.25
2023-02-24T23:15:08.397Z,96332.44
2023-02-24T23:20:13.548Z,96331.66
2023-02-24T23:25:15.487Z,96331.03
2023-02-24T23:30:17.466Z,96340.50
2023-02-24T23:35:19.294Z,96344.22
2023-02-24T23:40:26.264Z,96330.56
2023-02-24T23:45:28.788Z,96340.22
2023-02-24T23:50:32.009Z,96337.38
2023-02-24T23:55:36.813Z,96350.91
